Kununurra Airport
YPKU : now visible

Airfield :











YOU CAN JOIN US ON...

 
LOGIN :

Register | Disclaimer

   EN    FR    IT 

 









Legend :    VFR   Marginal VFR   IFR   Intensive IFR   Very Intensive IFR
Visi :
Ceiling :
>= 8 km
>= 3000ft
5 to 8 km
1000 to 3000 ft
1500m to 5 km
500 to 1000 ft
800 to 1500m
200 to 500 ft
< 800m
< 200 ft
Symbols :   Thunderstorms  Fog  Heavy snow  Heavy precipitations  Wind > 20 kt






- Airport Elevation : 145 ft
- IATA code : KNX


YPKU - Kununurra

CURRENT METAR :
  • 022100Z AUTO 19006KT 9999 // NCD 20/// Q1019 RF00.0/000.0

EXPIRED METARs :
  • 022030Z AUTO 16007KT 9999 // NCD 22/// Q1018 RF00.0/000.0
  • 022000Z AUTO 18004KT 9999 // NCD 20/// Q1018
  • 021930Z AUTO 20005KT 9999 // NCD 19/// Q1018 RF00.0/000.0
  • 021900Z AUTO 20006KT 9999 // NCD 20/// Q1018
  • 021830Z AUTO 18006KT 130V200 9999 // NCD 21/// Q1018 RF00.0/000.0

TAF TAF YPKU
Valid from the 02 at 20:00 until the 03 at 08:00 UTC


021857Z 0220/0308 17007KT CAVOK
FM022300 12012KT CAVOK
YBBB FIR / Oceania



MET'MAP, your aeronautical weather chart ! - Copyright ORBIFLY December 2007 - Disclaimer

ORBIFLY MET'MAP TEAM :

Programming & Development : Alexandra Zaïnal
Concept & original design : Baudouin d'Aumeries
Assistance for programming : Marc-Olivier Méhu
Technical & hardware support : Manuel Goepfert

Contact : metmap@orbifly.com




SOURCES & CREDITS :

   NOAA       Earth
Advisory